createdAt,value
2017-12-02T00:00:58.569Z,31.65
2017-12-02T00:02:01.101Z,35.47
2017-12-02T00:03:04.415Z,30.55
2017-12-02T00:04:06.938Z,33.20
2017-12-02T00:05:10.243Z,37.67
2017-12-02T00:06:13.541Z,28.65
2017-12-02T00:07:16.116Z,31.48
2017-12-02T00:08:18.633Z,30.35
2017-12-02T00:09:21.193Z,36.15
2017-12-02T00:10:23.717Z,31.67
2017-12-02T00:11:26.233Z,37.97
2017-12-02T00:12:28.750Z,39.97
2017-12-02T00:13:31.272Z,38.05
2017-12-02T00:14:34.593Z,32.53
2017-12-02T00:15:37.110Z,34.60
2017-12-02T00:16:39.650Z,29.73
2017-12-02T00:17:42.214Z,31.70
2017-12-02T00:18:44.784Z,38.08
2017-12-02T00:19:47.302Z,36.35
2017-12-02T00:20:50.602Z,32.80
2017-12-02T00:21:53.129Z,33.10
2017-12-02T00:22:55.652Z,33.10
2017-12-02T00:23:58.203Z,33.40
2017-12-02T00:25:00.780Z,37.58
2017-12-02T00:26:04.029Z,35.45
2017-12-02T00:27:07.321Z,37.00
2017-12-02T00:28:10.629Z,42.88
2017-12-02T00:29:13.198Z,35.75
2017-12-02T00:30:15.720Z,37.97
2017-12-02T00:31:18.244Z,37.80
2017-12-02T00:32:20.787Z,35.50
2017-12-02T00:33:23.317Z,37.47
2017-12-02T00:34:25.875Z,35.80
2017-12-02T00:35:28.430Z,38.10
2017-12-02T00:36:30.941Z,39.40
2017-12-02T00:37:33.459Z,38.05
2017-12-02T00:38:35.972Z,36.40
2017-12-02T00:39:38.501Z,38.97
2017-12-02T00:40:41.058Z,36.00
2017-12-02T00:41:43.590Z,40.90
2017-12-02T00:42:46.108Z,40.28
2017-12-02T00:43:48.629Z,39.85
2017-12-02T00:44:51.144Z,33.22
2017-12-02T00:45:54.471Z,35.13
2017-12-02T00:46:57.028Z,41.72
2017-12-02T00:47:59.546Z,37.90
2017-12-02T00:49:02.068Z,37.42
2017-12-02T00:50:04.593Z,37.83
2017-12-02T00:51:07.886Z,38.70
2017-12-02T00:52:11.218Z,34.67
2017-12-02T00:53:13.925Z,40.95
2017-12-02T00:54:16.458Z,37.00
2017-12-02T00:55:18.976Z,36.35
2017-12-02T00:56:22.265Z,33.03
2017-12-02T00:57:25.602Z,33.80
2017-12-02T00:58:28.146Z,34.85
2017-12-02T00:59:30.666Z,37.28
2017-12-02T01:00:33.952Z,35.85
2017-12-02T01:01:37.244Z,36.20
2017-12-02T01:02:40.568Z,37.63
2017-12-02T01:03:43.090Z,34.10
2017-12-02T01:04:46.387Z,37.35
2017-12-02T01:05:48.926Z,30.42
2017-12-02T01:06:51.446Z,35.53
2017-12-02T01:07:54.009Z,37.28
2017-12-02T01:08:56.527Z,36.15
2017-12-02T01:09:59.044Z,34.63
2017-12-02T01:11:01.567Z,34.78
2017-12-02T01:12:04.860Z,32.85
2017-12-02T01:13:08.169Z,37.85
2017-12-02T01:14:10.738Z,32.08
2017-12-02T01:15:13.260Z,36.65
2017-12-02T01:16:16.561Z,38.10
2017-12-02T01:17:19.088Z,33.67
2017-12-02T01:18:21.622Z,36.75
2017-12-02T01:19:24.176Z,36.83
2017-12-02T01:20:26.696Z,35.92
2017-12-02T01:21:29.265Z,36.20
2017-12-02T01:22:31.790Z,29.85
2017-12-02T01:23:34.312Z,36.42
2017-12-02T01:24:37.605Z,34.53
2017-12-02T01:25:40.890Z,36.90
2017-12-02T01:26:44.219Z,38.10
2017-12-02T01:27:46.746Z,37.60
2017-12-02T01:28:49.277Z,39.13
2017-12-02T01:29:51.790Z,40.45
2017-12-02T01:30:54.301Z,37.33
2017-12-02T01:31:56.858Z,43.35
2017-12-02T01:32:59.373Z,41.72
2017-12-02T01:34:01.923Z,39.85
2017-12-02T01:35:05.368Z,39.13
2017-12-02T01:36:07.918Z,39.88
2017-12-02T01:37:10.437Z,38.92
2017-12-02T01:38:12.949Z,43.00
2017-12-02T01:39:15.505Z,42.03
2017-12-02T01:40:18.024Z,41.37
2017-12-02T01:41:20.541Z,39.90
2017-12-02T01:42:23.059Z,41.47
2017-12-02T01:43:25.613Z,40.05
2017-12-02T01:44:28.158Z,40.47
2017-12-02T01:45:30.705Z,39.25
2017-12-02T01:46:33.222Z,41.25
2017-12-02T01:47:35.746Z,43.00
2017-12-02T01:48:38.294Z,39.35
2017-12-02T01:49:40.809Z,40.83
2017-12-02T01:50:43.365Z,40.72
2017-12-02T01:51:45.891Z,40.47
2017-12-02T01:52:48.410Z,40.58
2017-12-02T01:53:50.934Z,41.13
2017-12-02T01:54:53.494Z,44.13
2017-12-02T01:55:56.014Z,39.47
2017-12-02T01:56:58.533Z,39.03
2017-12-02T01:58:01.061Z,44.55
2017-12-02T01:59:04.337Z,46.90
2017-12-02T02:00:06.897Z,40.50
2017-12-02T02:01:09.431Z,41.13
2017-12-02T02:02:12.717Z,42.33
2017-12-02T02:03:15.251Z,38.83
2017-12-02T02:04:17.805Z,41.10
2017-12-02T02:05:21.085Z,47.17
2017-12-02T02:06:24.368Z,41.70
2017-12-02T02:07:26.881Z,44.50
2017-12-02T02:08:29.434Z,35.80
2017-12-02T02:09:32.030Z,43.72
2017-12-02T02:10:34.545Z,42.72
2017-12-02T02:11:37.101Z,43.15
2017-12-02T02:12:40.377Z,45.20
2017-12-02T02:13:43.668Z,45.20
2017-12-02T02:14:46.986Z,44.70
2017-12-02T02:15:49.501Z,43.55
2017-12-02T02:16:52.032Z,44.15
2017-12-02T02:17:54.549Z,43.05
2017-12-02T02:18:57.860Z,38.58
2017-12-02T02:20:00.378Z,44.67
2017-12-02T02:21:02.912Z,42.55
2017-12-02T02:22:05.470Z,45.03
2017-12-02T02:23:07.990Z,42.00
2017-12-02T02:24:11.265Z,45.12
2017-12-02T02:25:13.940Z,44.13
2017-12-02T02:26:16.458Z,48.45
2017-12-02T02:27:19.026Z,41.80
2017-12-02T02:28:21.541Z,50.63
2017-12-02T02:29:24.093Z,44.08
2017-12-02T02:30:26.617Z,45.42
2017-12-02T02:31:29.148Z,41.75
2017-12-02T02:32:32.497Z,45.25
2017-12-02T02:33:34.985Z,50.92
2017-12-02T02:34:38.308Z,55.17
2017-12-02T02:35:40.830Z,50.33
2017-12-02T02:36:43.352Z,43.75
2017-12-02T02:37:45.875Z,44.80
2017-12-02T02:38:49.166Z,43.90
2017-12-02T02:39:51.776Z,43.58
2017-12-02T02:40:54.306Z,41.83
2017-12-02T02:41:56.824Z,43.83
2017-12-02T02:42:59.345Z,47.08
2017-12-02T02:44:01.870Z,45.00
2017-12-02T02:45:04.430Z,41.90
2017-12-02T02:46:06.943Z,45.38
2017-12-02T02:47:09.471Z,43.50
2017-12-02T02:48:11.999Z,48.58
2017-12-02T02:49:14.582Z,47.62
2017-12-02T02:50:17.260Z,42.70
2017-12-02T02:51:19.951Z,45.70
2017-12-02T02:52:22.521Z,42.35
2017-12-02T02:53:25.809Z,44.60
2017-12-02T02:54:29.128Z,47.10
2017-12-02T02:55:31.649Z,46.15
2017-12-02T02:56:34.169Z,43.00
2017-12-02T02:57:36.688Z,45.15
2017-12-02T02:58:40.025Z,45.55
2017-12-02T02:59:42.549Z,41.55
2017-12-02T03:00:45.081Z,43.00
2017-12-02T03:01:47.605Z,44.92
2017-12-02T03:02:50.117Z,40.30
2017-12-02T03:03:52.676Z,48.30
2017-12-02T03:04:55.206Z,44.13
2017-12-02T03:05:57.720Z,47.22
2017-12-02T03:07:00.249Z,49.92
2017-12-02T03:08:02.806Z,52.75
2017-12-02T03:09:05.333Z,43.63
2017-12-02T03:10:08.626Z,44.47
2017-12-02T03:11:11.153Z,51.37
2017-12-02T03:12:13.669Z,42.58
2017-12-02T03:13:16.365Z,46.92
2017-12-02T03:14:18.934Z,48.50
2017-12-02T03:15:21.679Z,43.53
2017-12-02T03:16:24.196Z,45.22
2017-12-02T03:17:26.770Z,42.90
2017-12-02T03:18:29.290Z,44.22
2017-12-02T03:19:31.858Z,43.35
2017-12-02T03:20:34.369Z,44.83
2017-12-02T03:21:36.889Z,44.60
2017-12-02T03:22:39.401Z,46.70
2017-12-02T03:23:41.929Z,43.65
2017-12-02T03:24:44.473Z,45.95
2017-12-02T03:25:47.762Z,44.85
2017-12-02T03:26:50.273Z,46.47
2017-12-02T03:27:52.794Z,45.78
2017-12-02T03:28:55.322Z,49.40
2017-12-02T03:29:58.637Z,41.75
2017-12-02T03:31:01.176Z,45.12
2017-12-02T03:32:04.469Z,47.08
2017-12-02T03:33:07.772Z,41.80
2017-12-02T03:34:10.333Z,41.35
2017-12-02T03:35:12.954Z,48.97
2017-12-02T03:36:15.477Z,44.05
2017-12-02T03:37:18.032Z,46.92
2017-12-02T03:38:20.551Z,43.72
2017-12-02T03:39:23.075Z,39.80
2017-12-02T03:40:25.601Z,47.83
2017-12-02T03:41:28.881Z,45.03
2017-12-02T03:42:31.442Z,44.55
2017-12-02T03:43:33.958Z,43.75
2017-12-02T03:44:36.469Z,46.28
2017-12-02T03:45:38.991Z,46.90
2017-12-02T03:46:41.519Z,44.67
2017-12-02T03:47:44.837Z,45.00
2017-12-02T03:48:47.359Z,40.25
2017-12-02T03:49:49.897Z,42.10
2017-12-02T03:50:52.425Z,42.45
2017-12-02T03:51:54.977Z,42.42
2017-12-02T03:52:58.302Z,42.35
2017-12-02T03:54:00.828Z,44.17
2017-12-02T03:55:04.105Z,44.78
2017-12-02T03:56:07.393Z,42.80
2017-12-02T03:57:10.673Z,46.47
2017-12-02T03:58:13.994Z,41.45
2017-12-02T03:59:16.518Z,43.50
2017-12-02T04:00:19.934Z,43.92
2017-12-02T04:01:22.682Z,39.90
2017-12-02T04:02:25.962Z,44.67
2017-12-02T04:03:29.254Z,46.28
2017-12-02T04:04:31.778Z,43.92
2017-12-02T04:05:34.340Z,40.92
2017-12-02T04:06:36.864Z,41.42
2017-12-02T04:07:39.394Z,42.88
2017-12-02T04:08:41.919Z,44.05
2017-12-02T04:09:44.486Z,43.00
2017-12-02T04:10:47.002Z,45.83
2017-12-02T04:11:49.569Z,45.80
2017-12-02T04:12:52.861Z,46.03
2017-12-02T04:13:56.145Z,51.40
2017-12-02T04:14:59.428Z,40.22
2017-12-02T04:16:02.723Z,45.05
2017-12-02T04:17:05.289Z,41.95
2017-12-02T04:18:07.814Z,43.55
2017-12-02T04:19:10.337Z,39.47
2017-12-02T04:20:12.856Z,47.33
2017-12-02T04:21:15.466Z,42.92
2017-12-02T04:22:18.033Z,41.65
2017-12-02T04:23:20.549Z,42.72
2017-12-02T04:24:23.073Z,44.10
2017-12-02T04:25:25.592Z,45.90
2017-12-02T04:26:28.113Z,41.97
2017-12-02T04:27:30.768Z,48.97
2017-12-02T04:28:33.285Z,40.38
2017-12-02T04:29:35.801Z,42.85
2017-12-02T04:30:38.317Z,42.88
2017-12-02T04:31:40.840Z,50.45
2017-12-02T04:32:43.382Z,45.30
2017-12-02T04:33:45.908Z,46.28
2017-12-02T04:34:48.486Z,44.92
2017-12-02T04:35:51.046Z,45.15
2017-12-02T04:36:53.574Z,42.30
2017-12-02T04:37:56.096Z,45.80
2017-12-02T04:38:59.380Z,43.00
2017-12-02T04:40:02.670Z,38.22
2017-12-02T04:41:05.976Z,45.12
2017-12-02T04:42:08.493Z,44.80
2017-12-02T04:43:11.007Z,50.50
2017-12-02T04:44:13.576Z,34.75
2017-12-02T04:45:16.098Z,42.47
2017-12-02T04:46:18.620Z,45.42
2017-12-02T04:47:21.149Z,41.37
2017-12-02T04:48:24.433Z,43.05
2017-12-02T04:49:27.757Z,52.40
2017-12-02T04:50:30.273Z,43.63
2017-12-02T04:51:33.569Z,46.20
2017-12-02T04:52:36.095Z,40.78
2017-12-02T04:53:38.608Z,43.95
2017-12-02T04:54:41.179Z,41.63
2017-12-02T04:55:43.726Z,40.75
2017-12-02T04:56:47.008Z,42.55
2017-12-02T04:57:50.294Z,46.03
2017-12-02T04:58:53.578Z,43.53
2017-12-02T04:59:56.902Z,43.15
2017-12-02T05:00:59.605Z,43.22
2017-12-02T05:02:02.226Z,45.45
2017-12-02T05:03:04.742Z,44.42
2017-12-02T05:04:07.261Z,44.00
2017-12-02T05:05:09.786Z,43.67
2017-12-02T05:06:12.333Z,39.45
2017-12-02T05:07:14.851Z,47.42
2017-12-02T05:08:17.371Z,42.97
2017-12-02T05:09:19.891Z,44.40
2017-12-02T05:10:22.454Z,48.80
2017-12-02T05:11:24.964Z,41.80
2017-12-02T05:12:27.504Z,44.88
2017-12-02T05:13:30.024Z,41.78
2017-12-02T05:14:33.305Z,43.33
2017-12-02T05:15:36.641Z,46.47
2017-12-02T05:16:39.152Z,44.40
2017-12-02T05:17:42.440Z,44.03
2017-12-02T05:18:45.754Z,45.00
2017-12-02T05:19:48.321Z,46.60
2017-12-02T05:20:50.839Z,44.83
2017-12-02T05:21:53.358Z,45.33
2017-12-02T05:22:55.901Z,41.40
2017-12-02T05:23:58.425Z,48.15
2017-12-02T05:25:00.989Z,40.38
2017-12-02T05:26:03.504Z,43.95
2017-12-02T05:27:06.029Z,46.15
2017-12-02T05:28:08.549Z,43.25
2017-12-02T05:29:11.107Z,41.50
2017-12-02T05:30:13.620Z,39.35
2017-12-02T05:31:16.130Z,41.20
2017-12-02T05:32:18.774Z,48.17
2017-12-02T05:33:21.296Z,43.22
2017-12-02T05:34:23.814Z,43.00
2017-12-02T05:35:27.098Z,40.40
2017-12-02T05:36:30.373Z,47.00
2017-12-02T05:37:32.946Z,47.72
2017-12-02T05:38:36.224Z,48.38
2017-12-02T05:39:39.508Z,45.50
2017-12-02T05:40:42.798Z,44.10
2017-12-02T05:41:45.342Z,48.47
2017-12-02T05:42:47.989Z,47.17
2017-12-02T05:43:50.520Z,48.40
2017-12-02T05:44:53.051Z,49.63
2017-12-02T05:45:55.579Z,58.67
2017-12-02T05:46:58.095Z,51.80
2017-12-02T05:48:01.418Z,44.15
2017-12-02T05:49:03.933Z,50.40
2017-12-02T05:50:06.449Z,46.13
2017-12-02T05:51:09.023Z,44.55
2017-12-02T05:52:11.545Z,46.20
2017-12-02T05:53:14.865Z,52.80
2017-12-02T05:54:17.386Z,50.17
2017-12-02T05:55:19.909Z,45.67
2017-12-02T05:56:22.482Z,47.40
2017-12-02T05:57:25.226Z,46.22
2017-12-02T05:58:27.742Z,45.95
2017-12-02T05:59:30.258Z,42.97
2017-12-02T06:00:32.782Z,45.95
2017-12-02T06:01:35.341Z,44.30
2017-12-02T06:02:37.861Z,42.80
2017-12-02T06:03:40.373Z,46.33
2017-12-02T06:04:42.930Z,51.55
2017-12-02T06:05:45.444Z,46.40
2017-12-02T06:06:47.993Z,48.85
2017-12-02T06:07:51.277Z,51.37
2017-12-02T06:08:54.562Z,52.33
2017-12-02T06:09:57.849Z,49.25
2017-12-02T06:11:01.162Z,52.40
2017-12-02T06:12:03.680Z,44.63
2017-12-02T06:13:06.193Z,47.62
2017-12-02T06:14:08.714Z,51.20
2017-12-02T06:15:11.280Z,53.20
2017-12-02T06:16:13.895Z,48.97
2017-12-02T06:17:16.418Z,46.83
2017-12-02T06:18:19.717Z,44.38
2017-12-02T06:19:22.243Z,49.40
2017-12-02T06:20:24.808Z,51.03
2017-12-02T06:21:27.396Z,49.03
2017-12-02T06:22:29.916Z,56.10
2017-12-02T06:23:32.432Z,45.95
2017-12-02T06:24:35.764Z,49.17
2017-12-02T06:25:38.286Z,49.92
2017-12-02T06:26:41.573Z,50.42
2017-12-02T06:27:44.874Z,52.42
2017-12-02T06:28:47.397Z,46.10
2017-12-02T06:29:49.950Z,46.65
2017-12-02T06:30:52.522Z,48.40
2017-12-02T06:31:55.029Z,46.03
2017-12-02T06:32:58.457Z,49.83
2017-12-02T06:34:00.975Z,46.92
2017-12-02T06:35:04.259Z,53.03
2017-12-02T06:36:07.544Z,48.05
2017-12-02T06:37:10.823Z,47.05
2017-12-02T06:38:14.137Z,50.08
2017-12-02T06:39:16.722Z,64.45
2017-12-02T06:40:19.274Z,64.40
2017-12-02T06:41:21.842Z,51.70
2017-12-02T06:42:24.360Z,56.08
2017-12-02T06:43:26.922Z,52.42
2017-12-02T06:44:29.446Z,48.65
2017-12-02T06:45:31.973Z,44.28
2017-12-02T06:46:35.249Z,47.47
2017-12-02T06:47:38.551Z,45.70
2017-12-02T06:48:41.875Z,46.83
2017-12-02T06:49:44.436Z,42.83
2017-12-02T06:50:46.949Z,45.35
2017-12-02T06:51:49.460Z,45.88
2017-12-02T06:52:51.980Z,47.03
2017-12-02T06:53:54.544Z,51.45
2017-12-02T06:54:57.058Z,44.03
2017-12-02T06:55:59.580Z,44.42
2017-12-02T06:57:02.865Z,44.83
2017-12-02T06:58:06.172Z,56.92
2017-12-02T06:59:08.720Z,43.00
2017-12-02T07:00:12.001Z,46.85
2017-12-02T07:01:15.291Z,47.58
2017-12-02T07:02:18.576Z,42.65
2017-12-02T07:03:21.862Z,39.60
2017-12-02T07:04:25.172Z,48.75
2017-12-02T07:05:27.726Z,49.90
2017-12-02T07:06:30.254Z,47.55
2017-12-02T07:07:32.799Z,50.55
2017-12-02T07:08:35.352Z,45.08
2017-12-02T07:09:37.890Z,40.00
2017-12-02T07:10:40.461Z,42.13
2017-12-02T07:11:42.978Z,47.30
2017-12-02T07:12:45.510Z,41.00
2017-12-02T07:13:48.033Z,46.75
2017-12-02T07:14:51.321Z,39.78
2017-12-02T07:15:54.650Z,39.92
2017-12-02T07:16:57.175Z,43.08
2017-12-02T07:18:00.485Z,41.47
2017-12-02T07:19:03.005Z,42.80
2017-12-02T07:20:05.559Z,45.45
2017-12-02T07:21:08.081Z,36.88
2017-12-02T07:22:10.593Z,36.90
2017-12-02T07:23:13.197Z,45.60
2017-12-02T07:24:15.709Z,46.63
2017-12-02T07:25:18.228Z,38.97
2017-12-02T07:26:20.762Z,41.78
2017-12-02T07:27:23.295Z,45.17
2017-12-02T07:28:25.862Z,45.67
2017-12-02T07:29:28.418Z,48.75
2017-12-02T07:30:30.932Z,47.08
2017-12-02T07:31:33.444Z,42.38
2017-12-02T07:32:35.964Z,48.95
2017-12-02T07:33:38.493Z,48.15
2017-12-02T07:34:41.049Z,42.28
2017-12-02T07:35:43.570Z,46.22
2017-12-02T07:36:46.865Z,54.90
2017-12-02T07:37:50.160Z,42.30
2017-12-02T07:38:52.706Z,50.40
2017-12-02T07:39:56.017Z,50.05
2017-12-02T07:40:58.566Z,41.03
2017-12-02T07:42:01.130Z,40.40
2017-12-02T07:43:04.421Z,42.83
2017-12-02T07:44:06.938Z,47.45
2017-12-02T07:45:09.492Z,37.00
2017-12-02T07:46:12.000Z,39.42
2017-12-02T07:47:15.350Z,38.30
2017-12-02T07:48:17.832Z,37.40
2017-12-02T07:49:20.367Z,32.30
2017-12-02T07:50:22.941Z,30.58
2017-12-02T07:51:25.478Z,32.05
2017-12-02T07:52:27.990Z,29.98
2017-12-02T07:53:30.677Z,31.67
2017-12-02T07:54:33.240Z,36.05
2017-12-02T07:55:35.789Z,36.33
2017-12-02T07:56:38.305Z,33.03
2017-12-02T07:57:40.832Z,37.53
2017-12-02T07:58:43.349Z,32.78
2017-12-02T07:59:45.905Z,40.45
2017-12-02T08:00:48.472Z,33.72
2017-12-02T08:01:51.279Z,31.90
2017-12-02T08:02:53.870Z,30.90
2017-12-02T08:03:57.205Z,32.88
2017-12-02T08:04:59.753Z,34.80
2017-12-02T08:06:03.075Z,35.45
2017-12-02T08:07:05.640Z,36.25
2017-12-02T08:08:08.153Z,40.92
2017-12-02T08:09:10.669Z,34.75
2017-12-02T08:10:13.184Z,36.25
2017-12-02T08:11:15.733Z,41.40
2017-12-02T08:12:18.248Z,45.70
2017-12-02T08:13:20.802Z,38.95
2017-12-02T08:14:24.152Z,34.33
2017-12-02T08:15:26.775Z,46.42
2017-12-02T08:16:35.053Z,42.10
2017-12-02T08:17:38.456Z,46.40
2017-12-02T08:18:41.024Z,44.03
2017-12-02T08:19:43.546Z,47.25
2017-12-02T08:20:46.061Z,44.25
2017-12-02T08:21:48.577Z,52.22
2017-12-02T08:22:51.092Z,47.35
2017-12-02T08:23:53.661Z,39.92
2017-12-02T08:24:56.178Z,49.92
2017-12-02T08:25:58.696Z,53.10
2017-12-02T08:27:01.209Z,46.08
2017-12-02T08:28:03.732Z,48.35
2017-12-02T08:29:06.285Z,47.17
2017-12-02T08:30:08.809Z,53.13
2017-12-02T08:31:11.348Z,48.63
2017-12-02T08:32:13.875Z,45.80
2017-12-02T08:33:16.392Z,48.45
2017-12-02T08:34:18.953Z,49.03
2017-12-02T08:35:21.539Z,50.33
2017-12-02T08:36:24.065Z,42.22
2017-12-02T08:37:26.607Z,47.40
2017-12-02T08:38:29.134Z,51.40
2017-12-02T08:39:31.701Z,48.78
2017-12-02T08:40:34.232Z,48.05
2017-12-02T08:41:36.753Z,47.03
2017-12-02T08:42:40.039Z,48.17
2017-12-02T08:43:43.340Z,49.95
2017-12-02T08:44:45.906Z,42.55
2017-12-02T08:45:48.422Z,56.83
2017-12-02T08:46:50.962Z,52.97
2017-12-02T08:47:53.524Z,47.53
2017-12-02T08:48:56.038Z,51.17
2017-12-02T08:49:58.548Z,56.85
2017-12-02T08:51:01.122Z,44.50
2017-12-02T08:52:03.649Z,43.92
2017-12-02T08:53:06.935Z,52.97
2017-12-02T08:54:10.224Z,47.40
2017-12-02T08:55:12.746Z,52.20
2017-12-02T08:56:15.321Z,51.58
2017-12-02T08:57:17.842Z,47.75
2017-12-02T08:58:20.357Z,44.38
2017-12-02T08:59:22.883Z,54.13
2017-12-02T09:01:34.454Z,42.72
2017-12-02T09:02:36.974Z,45.33
2017-12-02T09:03:39.631Z,38.88
2017-12-02T09:04:42.153Z,37.55
2017-12-02T09:05:44.670Z,42.70
2017-12-02T09:06:47.224Z,37.60
2017-12-02T09:07:49.750Z,42.95
2017-12-02T09:08:52.265Z,40.72
2017-12-02T09:09:54.793Z,44.78
2017-12-02T09:10:57.356Z,46.70
2017-12-02T09:11:59.896Z,39.33
2017-12-02T09:13:03.213Z,47.55
2017-12-02T09:14:05.782Z,44.08
2017-12-02T09:15:08.297Z,50.22
2017-12-02T09:16:11.578Z,44.05
2017-12-02T09:17:14.151Z,43.75
2017-12-02T09:18:17.441Z,44.20
2017-12-02T09:19:20.771Z,49.38
2017-12-02T09:20:23.289Z,53.42
2017-12-02T09:21:26.569Z,54.53
2017-12-02T09:22:29.857Z,47.75
2017-12-02T09:23:33.143Z,50.60
2017-12-02T09:24:36.469Z,48.80
2017-12-02T09:25:38.982Z,44.40
2017-12-02T09:26:42.265Z,45.22
2017-12-02T09:27:45.546Z,48.38
2017-12-02T09:28:48.065Z,49.38
2017-12-02T09:29:50.625Z,48.35
2017-12-02T09:30:53.190Z,39.03
2017-12-02T09:31:55.710Z,41.88
2017-12-02T09:32:58.224Z,41.58
2017-12-02T09:34:00.740Z,44.80
2017-12-02T09:35:03.261Z,41.35
2017-12-02T09:36:05.829Z,43.35
2017-12-02T09:37:08.341Z,43.28
2017-12-02T09:38:10.865Z,40.03
2017-12-02T09:39:13.398Z,41.63
2017-12-02T09:40:15.921Z,38.38
2017-12-02T09:41:18.491Z,45.10
2017-12-02T09:42:21.260Z,40.72
2017-12-02T09:43:23.829Z,37.25
2017-12-02T09:44:26.363Z,34.60
2017-12-02T09:45:28.880Z,38.65
2017-12-02T09:46:32.209Z,41.85
2017-12-02T09:47:34.725Z,35.65
2017-12-02T09:48:37.240Z,30.95
2017-12-02T09:49:39.750Z,33.08
2017-12-02T09:50:42.318Z,39.25
2017-12-02T09:51:45.610Z,33.35
2017-12-02T09:52:48.913Z,38.33
2017-12-02T09:53:51.448Z,39.22
2017-12-02T09:54:53.963Z,37.10
2017-12-02T09:55:56.528Z,34.38
2017-12-02T09:56:59.050Z,33.63
2017-12-02T09:58:01.566Z,32.42
2017-12-02T09:59:04.082Z,35.10
2017-12-02T10:00:06.601Z,36.95
2017-12-02T10:01:09.169Z,36.55
2017-12-02T10:02:11.691Z,33.22
2017-12-02T10:03:14.982Z,35.47
2017-12-02T10:04:17.529Z,37.08
2017-12-02T10:05:20.062Z,37.90
2017-12-02T10:06:22.637Z,34.38
2017-12-02T10:07:25.159Z,39.88
2017-12-02T10:08:27.825Z,39.17
2017-12-02T10:09:30.351Z,37.53
2017-12-02T10:10:32.873Z,37.75
2017-12-02T10:11:35.431Z,36.30
2017-12-02T10:12:37.945Z,40.12
2017-12-02T10:13:40.510Z,38.78
2017-12-02T10:14:43.013Z,33.17
2017-12-02T10:15:46.301Z,32.70
2017-12-02T10:16:48.958Z,42.80
2017-12-02T10:17:52.268Z,32.22
2017-12-02T10:18:54.781Z,35.63
2017-12-02T10:19:57.301Z,29.48
2017-12-02T10:20:59.966Z,31.00
2017-12-02T10:22:02.534Z,29.42
2017-12-02T10:23:05.085Z,28.67
2017-12-02T10:24:07.616Z,30.35
2017-12-02T10:25:10.901Z,28.95
2017-12-02T10:26:13.421Z,33.42
2017-12-02T10:27:15.979Z,24.92
2017-12-02T10:28:18.501Z,30.52
2017-12-02T10:29:21.022Z,32.90
2017-12-02T10:30:23.538Z,29.90
2017-12-02T10:31:26.065Z,26.15
2017-12-02T10:32:28.634Z,29.33
2017-12-02T10:33:31.157Z,25.58
2017-12-02T10:34:34.445Z,25.23
2017-12-02T10:35:36.969Z,21.05
2017-12-02T10:36:39.501Z,24.80
2017-12-02T10:37:42.052Z,29.65
2017-12-02T10:38:44.575Z,27.70
2017-12-02T10:39:47.113Z,29.15
2017-12-02T10:40:49.646Z,24.50
2017-12-02T10:41:52.173Z,25.02
2017-12-02T10:42:54.741Z,26.35
2017-12-02T10:43:57.260Z,26.23
2017-12-02T10:44:59.777Z,29.27
2017-12-02T10:46:02.289Z,22.30
2017-12-02T10:47:04.820Z,22.85
2017-12-02T10:48:08.137Z,25.88
2017-12-02T10:49:10.668Z,20.73
2017-12-02T10:50:13.962Z,25.50
2017-12-02T10:51:17.257Z,23.83
2017-12-02T10:52:19.786Z,25.30
2017-12-02T10:53:23.134Z,22.30
2017-12-02T10:54:25.736Z,26.08
2017-12-02T10:55:28.270Z,25.08
2017-12-02T10:56:30.810Z,29.70
2017-12-02T10:57:33.335Z,28.85
2017-12-02T10:58:35.879Z,26.35
2017-12-02T10:59:38.491Z,25.98
2017-12-02T11:00:41.776Z,28.15
2017-12-02T11:01:45.070Z,33.75
2017-12-02T11:02:48.349Z,22.15
2017-12-02T11:03:51.635Z,27.87
2017-12-02T11:04:55.050Z,29.23
2017-12-02T11:05:57.568Z,28.62
2017-12-02T11:07:00.093Z,28.38
2017-12-02T11:08:02.618Z,21.42
2017-12-02T11:09:05.906Z,33.15
2017-12-02T11:10:08.465Z,30.17
2017-12-02T11:11:11.757Z,27.58
2017-12-02T11:12:15.046Z,28.08
2017-12-02T11:13:17.573Z,27.37
2017-12-02T11:14:20.144Z,30.17
2017-12-02T11:15:22.664Z,23.90
2017-12-02T11:16:25.197Z,31.37
2017-12-02T11:17:28.486Z,23.52
2017-12-02T11:18:31.782Z,28.00
2017-12-02T11:19:34.346Z,25.42
2017-12-02T11:20:36.866Z,26.48
2017-12-02T11:21:39.390Z,25.08
2017-12-02T11:22:41.918Z,24.87
2017-12-02T11:23:45.202Z,30.12
2017-12-02T11:24:48.530Z,26.50
2017-12-02T11:25:51.053Z,27.67
2017-12-02T11:26:54.341Z,31.50
2017-12-02T11:27:57.634Z,27.05
2017-12-02T11:29:00.925Z,30.25
2017-12-02T11:30:03.498Z,29.55
2017-12-02T11:31:06.020Z,28.38
2017-12-02T11:32:08.546Z,22.10
2017-12-02T11:33:11.104Z,24.90
2017-12-02T11:34:13.617Z,28.77
2017-12-02T11:35:16.193Z,25.88
2017-12-02T11:36:18.728Z,26.20
2017-12-02T11:37:21.253Z,29.05
2017-12-02T11:38:23.769Z,24.95
2017-12-02T11:39:26.284Z,31.37
2017-12-02T11:40:28.943Z,28.87
2017-12-02T11:41:32.230Z,27.17
2017-12-02T11:42:35.527Z,26.30
2017-12-02T11:43:38.052Z,32.88
2017-12-02T11:44:40.572Z,24.40
2017-12-02T11:45:43.141Z,25.95
2017-12-02T11:46:45.669Z,22.83
2017-12-02T11:47:48.959Z,21.85
2017-12-02T11:48:52.246Z,26.83
2017-12-02T11:49:55.533Z,23.87
2017-12-02T11:50:58.868Z,25.90
2017-12-02T11:52:01.401Z,25.05
2017-12-02T11:53:03.929Z,24.50
2017-12-02T11:54:07.220Z,24.58
2017-12-02T11:55:10.514Z,22.25
2017-12-02T11:56:13.857Z,25.02
2017-12-02T11:57:16.396Z,23.08
2017-12-02T11:58:18.920Z,18.90
2017-12-02T11:59:22.220Z,24.95
2017-12-02T12:00:24.745Z,26.17
2017-12-02T12:01:27.316Z,20.37
2017-12-02T12:02:29.852Z,20.02
2017-12-02T12:03:32.381Z,20.77
2017-12-02T12:04:35.676Z,20.08
2017-12-02T12:05:38.250Z,19.23
2017-12-02T12:06:40.813Z,19.02
2017-12-02T12:07:43.332Z,21.05
2017-12-02T12:08:45.874Z,21.30
2017-12-02T12:09:49.186Z,21.20
2017-12-02T12:10:52.593Z,24.40
2017-12-02T12:11:55.909Z,22.37
2017-12-02T12:12:58.429Z,21.17
2017-12-02T12:14:00.989Z,25.95
2017-12-02T12:15:03.518Z,17.17
2017-12-02T12:16:06.049Z,19.85
2017-12-02T12:17:08.575Z,21.48
2017-12-02T12:18:12.601Z,19.67
2017-12-02T12:19:15.925Z,19.55
2017-12-02T12:20:18.454Z,18.90
2017-12-02T12:21:21.755Z,13.00
2017-12-02T12:22:24.277Z,18.15
2017-12-02T12:23:26.809Z,18.00
2017-12-02T12:24:29.373Z,20.88
2017-12-02T12:25:31.896Z,15.20
2017-12-02T12:26:35.189Z,16.35
2017-12-02T12:27:38.661Z,19.08
2017-12-02T12:28:41.182Z,16.55
2017-12-02T12:29:43.750Z,14.02
2017-12-02T12:30:46.269Z,15.55
2017-12-02T12:31:49.548Z,16.87
2017-12-02T12:32:52.064Z,16.67
2017-12-02T12:33:54.610Z,20.15
2017-12-02T12:34:57.170Z,16.30
2017-12-02T12:35:59.692Z,11.73
2017-12-02T12:38:11.133Z,13.13
2017-12-02T12:39:13.670Z,16.25
2017-12-02T12:40:16.982Z,13.82
2017-12-02T12:41:19.533Z,14.25
2017-12-02T12:42:22.050Z,15.20
2017-12-02T12:43:24.576Z,14.30
2017-12-02T12:44:27.136Z,12.27
2017-12-02T12:45:29.667Z,14.55
2017-12-02T12:46:32.198Z,14.02
2017-12-02T12:47:34.759Z,16.25
2017-12-02T12:48:37.297Z,16.12
2017-12-02T12:49:39.814Z,14.27
2017-12-02T12:50:43.258Z,15.63
2017-12-02T12:51:45.930Z,15.68
2017-12-02T12:52:48.488Z,15.70
2017-12-02T12:53:51.010Z,14.48
2017-12-02T12:54:53.525Z,13.90
2017-12-02T12:55:56.038Z,13.18
2017-12-02T12:56:59.347Z,14.18
2017-12-02T12:58:02.678Z,8.82
2017-12-02T12:59:05.194Z,11.63
2017-12-02T13:00:08.477Z,12.88
2017-12-02T13:01:11.781Z,10.38
2017-12-02T13:02:14.310Z,11.50
2017-12-02T13:03:16.873Z,17.83
2017-12-02T13:04:19.404Z,13.70
2017-12-02T13:05:21.917Z,11.70
2017-12-02T13:06:24.441Z,12.95
2017-12-02T13:07:26.958Z,14.65
2017-12-02T13:08:30.274Z,13.88
2017-12-02T13:09:32.790Z,12.05
2017-12-02T13:10:35.305Z,13.93
2017-12-02T13:11:37.821Z,11.60
2017-12-02T13:12:40.389Z,11.25
2017-12-02T13:13:42.905Z,13.07
2017-12-02T13:14:45.417Z,12.30
2017-12-02T13:15:47.950Z,15.07
2017-12-02T13:16:50.463Z,13.62
2017-12-02T13:17:53.834Z,12.37
2017-12-02T13:18:56.353Z,9.35
2017-12-02T13:19:58.873Z,12.80
2017-12-02T13:21:01.393Z,10.48
2017-12-02T13:22:03.913Z,11.80
2017-12-02T13:23:06.465Z,11.45
2017-12-02T13:24:08.986Z,15.38
2017-12-02T13:25:11.526Z,11.52
2017-12-02T13:26:14.809Z,13.23
2017-12-02T13:27:18.103Z,14.05
2017-12-02T13:28:20.693Z,11.75
2017-12-02T13:29:23.198Z,9.95
2017-12-02T13:30:25.717Z,11.65